createdAt,value
2018-08-23T00:02:23.711Z,99.90
2018-08-23T00:04:54.732Z,99.90
2018-08-23T00:07:23.456Z,99.90
2018-08-23T00:09:52.840Z,99.90
2018-08-23T00:12:25.476Z,99.90
2018-08-23T00:14:54.245Z,99.90
2018-08-23T00:17:23.346Z,99.90
2018-08-23T00:19:52.522Z,99.90
2018-08-23T00:22:27.560Z,99.90
2018-08-23T00:25:00.610Z,99.90
2018-08-23T00:27:38.786Z,99.90
2018-08-23T00:30:11.396Z,99.90
2018-08-23T00:32:40.524Z,99.90
2018-08-23T00:35:15.009Z,99.90
2018-08-23T00:37:48.395Z,99.90
2018-08-23T00:40:19.090Z,99.90
2018-08-23T00:42:54.309Z,99.90
2018-08-23T00:45:22.561Z,99.90
2018-08-23T00:47:50.836Z,99.90
2018-08-23T00:50:59.076Z,99.90
2018-08-23T00:53:28.582Z,99.90
2018-08-23T00:56:13.087Z,99.90
2018-08-23T00:58:44.566Z,99.90
2018-08-23T01:01:13.598Z,99.90
2018-08-23T01:03:42.227Z,99.90
2018-08-23T01:06:10.498Z,99.90
2018-08-23T01:08:38.734Z,99.90
2018-08-23T01:11:08.138Z,99.90
2018-08-23T01:13:36.424Z,99.90
2018-08-23T01:16:04.683Z,99.90
2018-08-23T01:18:32.931Z,99.90
2018-08-23T01:21:06.302Z,99.90
2018-08-23T01:23:34.826Z,99.90
2018-08-23T01:26:04.154Z,99.90
2018-08-23T01:28:32.685Z,99.90
2018-08-23T01:31:17.219Z,99.90
2018-08-23T01:33:45.852Z,99.90
2018-08-23T01:36:16.970Z,99.90
2018-08-23T01:38:45.265Z,99.90
2018-08-23T01:41:13.524Z,99.90
2018-08-23T01:43:42.333Z,99.90
2018-08-23T01:46:10.610Z,99.90
2018-08-23T01:48:40.010Z,99.90
2018-08-23T01:51:08.402Z,99.90
2018-08-23T01:53:38.787Z,99.90
2018-08-23T01:56:07.718Z,99.90
2018-08-23T01:58:36.006Z,99.90
2018-08-23T02:01:13.652Z,99.90
2018-08-23T02:03:42.234Z,99.90
2018-08-23T02:06:10.535Z,99.90
2018-08-23T02:08:38.827Z,99.90
2018-08-23T02:11:07.338Z,99.90
2018-08-23T02:13:35.637Z,99.90
2018-08-23T02:16:04.357Z,99.90
2018-08-23T02:18:33.458Z,99.90
2018-08-23T02:21:07.898Z,99.90
2018-08-23T02:23:45.592Z,99.90
2018-08-23T02:26:14.199Z,99.90
2018-08-23T02:28:44.866Z,99.90
2018-08-23T02:31:13.106Z,99.90
2018-08-23T02:33:41.398Z,99.90
2018-08-23T02:36:16.121Z,99.90
2018-08-23T02:38:45.568Z,99.90
2018-08-23T02:41:13.829Z,99.90
2018-08-23T02:43:42.677Z,99.90
2018-08-23T02:46:10.971Z,99.90
2018-08-23T02:48:39.222Z,99.90
2018-08-23T02:51:07.495Z,99.90
2018-08-23T02:53:37.375Z,99.90
2018-08-23T02:56:10.287Z,99.90
2018-08-23T02:58:47.953Z,99.90
2018-08-23T03:01:16.262Z,99.90
2018-08-23T03:04:00.025Z,99.90
2018-08-23T03:07:02.727Z,99.90
2018-08-23T03:09:36.255Z,99.90
2018-08-23T03:12:07.722Z,99.90
2018-08-23T03:14:36.153Z,99.90
2018-08-23T03:17:22.292Z,99.90
2018-08-23T03:20:05.101Z,99.90
2018-08-23T03:22:34.195Z,99.90
2018-08-23T03:25:04.222Z,99.90
2018-08-23T03:27:32.713Z,99.90
2018-08-23T03:30:01.919Z,99.90
2018-08-23T03:32:30.614Z,99.90
2018-08-23T03:34:59.279Z,99.90
2018-08-23T03:37:27.570Z,99.90
2018-08-23T03:39:56.335Z,99.90
2018-08-23T03:42:25.022Z,99.90
2018-08-23T03:44:54.422Z,99.90
2018-08-23T03:47:23.026Z,99.90
2018-08-23T03:49:51.451Z,99.90
2018-08-23T03:52:27.948Z,99.90
2018-08-23T03:54:58.411Z,99.90
2018-08-23T03:57:32.136Z,99.90
2018-08-23T04:00:00.395Z,99.90
2018-08-23T04:02:28.618Z,99.90
2018-08-23T04:05:04.496Z,99.90
2018-08-23T04:07:32.770Z,99.90
2018-08-23T04:10:01.043Z,99.90
2018-08-23T04:12:29.362Z,99.90
2018-08-23T04:15:13.046Z,99.90
2018-08-23T04:17:41.267Z,99.90
2018-08-23T04:20:09.574Z,99.90
2018-08-23T04:22:37.890Z,99.90
2018-08-23T04:25:06.381Z,99.90
2018-08-23T04:27:34.979Z,99.90
2018-08-23T04:30:03.306Z,99.90
2018-08-23T04:32:36.949Z,99.90
2018-08-23T04:35:09.733Z,99.90
2018-08-23T04:37:38.143Z,99.90
2018-08-23T04:40:07.308Z,99.90
2018-08-23T04:42:36.120Z,99.90
2018-08-23T04:45:08.762Z,99.90
2018-08-23T04:47:43.906Z,99.90
2018-08-23T04:50:12.507Z,99.90
2018-08-23T04:52:40.847Z,99.90
2018-08-23T04:55:09.160Z,99.90
2018-08-23T04:57:37.494Z,99.90
2018-08-23T05:00:06.215Z,99.90
2018-08-23T05:02:34.803Z,99.90
2018-08-23T05:05:03.056Z,99.90
2018-08-23T05:07:31.291Z,99.90
2018-08-23T05:09:59.539Z,99.90
2018-08-23T05:12:27.933Z,99.90
2018-08-23T05:14:56.162Z,99.90
2018-08-23T05:17:24.641Z,99.90
2018-08-23T05:19:53.022Z,99.90
2018-08-23T05:22:21.303Z,99.90
2018-08-23T05:24:49.539Z,99.90
2018-08-23T05:27:17.803Z,99.90
2018-08-23T05:29:46.038Z,99.90
2018-08-23T05:32:14.326Z,99.90
2018-08-23T05:34:42.581Z,99.90
2018-08-23T05:37:10.811Z,99.90
2018-08-23T05:39:48.659Z,99.90
2018-08-23T05:42:23.774Z,99.90
2018-08-23T05:44:52.019Z,99.90
2018-08-23T05:47:20.274Z,99.90
2018-08-23T05:49:48.530Z,99.90
2018-08-23T05:52:17.467Z,99.90
2018-08-23T05:54:45.779Z,99.90
2018-08-23T05:57:14.342Z,99.90
2018-08-23T05:59:42.682Z,99.90
2018-08-23T06:02:11.223Z,99.90
2018-08-23T06:04:41.637Z,99.90
2018-08-23T06:07:09.967Z,99.90
2018-08-23T06:09:40.723Z,99.90
2018-08-23T06:12:09.222Z,99.90
2018-08-23T06:14:37.448Z,99.90
2018-08-23T06:17:06.255Z,99.90
2018-08-23T06:19:34.526Z,99.90
2018-08-23T06:22:02.753Z,99.90
2018-08-23T06:24:31.490Z,99.90
2018-08-23T06:27:00.364Z,99.90
2018-08-23T06:29:31.223Z,99.90
2018-08-23T06:32:09.903Z,99.90
2018-08-23T06:34:41.648Z,99.90
2018-08-23T06:37:09.907Z,99.90
2018-08-23T06:39:40.193Z,99.90
2018-08-23T06:42:08.571Z,99.90
2018-08-23T06:44:42.779Z,99.90
2018-08-23T06:47:13.589Z,99.90
2018-08-23T06:49:42.942Z,99.90
2018-08-23T06:52:12.923Z,99.90
2018-08-23T06:54:41.695Z,99.90
2018-08-23T06:57:10.411Z,99.90
2018-08-23T06:59:39.018Z,99.90
2018-08-23T07:02:07.376Z,99.90
2018-08-23T07:04:35.638Z,99.90
2018-08-23T07:07:03.939Z,99.90
2018-08-23T07:09:33.065Z,99.90
2018-08-23T07:12:06.607Z,99.90
2018-08-23T07:14:35.251Z,99.90
2018-08-23T07:17:15.130Z,99.90
2018-08-23T07:19:43.612Z,99.90
2018-08-23T07:22:12.251Z,99.90
2018-08-23T07:24:43.914Z,99.90
2018-08-23T07:27:13.302Z,99.90
2018-08-23T07:29:44.692Z,99.90
2018-08-23T07:32:19.202Z,99.90
2018-08-23T07:35:01.941Z,99.90
2018-08-23T07:37:31.110Z,99.90
2018-08-23T07:40:04.902Z,99.90
2018-08-23T07:42:33.912Z,99.90
2018-08-23T07:45:02.680Z,99.90
2018-08-23T07:47:31.586Z,99.90
2018-08-23T07:50:00.996Z,99.90
2018-08-23T07:52:30.583Z,99.90
2018-08-23T07:54:58.902Z,99.90
2018-08-23T07:57:30.866Z,99.90
2018-08-23T08:00:00.455Z,99.90
2018-08-23T08:02:29.234Z,99.90
2018-08-23T08:04:58.262Z,99.90
2018-08-23T08:07:27.434Z,99.90
2018-08-23T08:09:56.430Z,99.90
2018-08-23T08:12:38.456Z,99.90
2018-08-23T08:15:08.606Z,99.90
2018-08-23T08:17:36.756Z,99.90
2018-08-23T08:20:06.264Z,99.90
2018-08-23T08:22:34.546Z,99.90
2018-08-23T08:25:08.971Z,99.90
2018-08-23T08:27:37.805Z,99.90
2018-08-23T08:30:08.362Z,99.90
2018-08-23T08:32:36.621Z,99.90
2018-08-23T08:35:04.923Z,99.90
2018-08-23T08:37:33.168Z,99.90
2018-08-23T08:40:01.453Z,99.90
2018-08-23T08:42:32.188Z,99.90
2018-08-23T08:45:17.014Z,99.90
2018-08-23T08:47:46.265Z,99.90
2018-08-23T08:50:14.636Z,99.90
2018-08-23T08:52:43.002Z,99.90
2018-08-23T08:55:13.643Z,99.90
2018-08-23T08:57:43.328Z,99.90
2018-08-23T09:00:11.711Z,99.90
2018-08-23T09:02:39.986Z,99.90
2018-08-23T09:05:09.131Z,99.90
2018-08-23T09:07:38.446Z,99.90
2018-08-23T09:10:06.846Z,99.90
2018-08-23T09:12:39.306Z,99.90
2018-08-23T09:15:07.662Z,99.90
2018-08-23T09:17:42.271Z,99.90
2018-08-23T09:20:18.628Z,99.90
2018-08-23T09:22:50.527Z,99.90
2018-08-23T09:25:28.647Z,99.90
2018-08-23T09:27:58.169Z,99.60
2018-08-23T09:30:27.886Z,98.40
2018-08-23T09:32:56.420Z,98.00
2018-08-23T09:35:28.905Z,97.80
2018-08-23T09:37:58.890Z,97.80
2018-08-23T09:40:27.887Z,98.10
2018-08-23T09:42:56.653Z,98.30
2018-08-23T09:45:24.919Z,98.10
2018-08-23T09:47:53.486Z,96.90
2018-08-23T09:50:21.937Z,96.40
2018-08-23T09:52:50.695Z,96.80
2018-08-23T09:55:20.124Z,96.90
2018-08-23T09:57:48.552Z,96.70
2018-08-23T10:00:22.230Z,95.70
2018-08-23T10:02:55.856Z,95.40
2018-08-23T10:05:29.749Z,95.00
2018-08-23T10:08:03.402Z,94.20
2018-08-23T10:10:37.250Z,94.80
2018-08-23T10:13:10.947Z,94.30
2018-08-23T10:15:45.190Z,93.90
2018-08-23T10:18:18.882Z,93.80
2018-08-23T10:20:52.827Z,92.70
2018-08-23T10:23:22.718Z,91.70
2018-08-23T10:25:52.175Z,92.00
2018-08-23T10:28:23.777Z,93.40
2018-08-23T10:30:52.439Z,92.40
2018-08-23T10:33:20.915Z,92.70
2018-08-23T10:35:56.539Z,93.00
2018-08-23T10:38:26.703Z,92.50
2018-08-23T10:40:59.273Z,92.40
2018-08-23T10:43:32.969Z,92.10
2018-08-23T10:46:03.882Z,91.80
2018-08-23T10:48:32.278Z,92.00
2018-08-23T10:51:00.585Z,92.50
2018-08-23T10:53:28.900Z,92.50
2018-08-23T10:55:57.312Z,92.20
2018-08-23T10:58:25.704Z,91.90
2018-08-23T11:00:53.952Z,91.80
2018-08-23T11:03:22.230Z,91.90
2018-08-23T11:05:50.603Z,91.50
2018-08-23T11:08:19.802Z,90.60
2018-08-23T11:10:53.442Z,89.20
2018-08-23T11:13:27.022Z,89.80
2018-08-23T11:16:00.834Z,89.40
2018-08-23T11:18:34.526Z,89.40
2018-08-23T11:21:03.734Z,87.70
2018-08-23T11:23:32.301Z,89.60
2018-08-23T11:26:00.575Z,88.40
2018-08-23T11:28:28.865Z,87.50
2018-08-23T11:31:01.631Z,87.10
2018-08-23T11:33:29.912Z,86.80
2018-08-23T11:35:58.319Z,82.60
2018-08-23T11:38:26.635Z,81.70
2018-08-23T11:40:54.890Z,81.60
2018-08-23T11:43:23.294Z,80.90
2018-08-23T11:46:01.750Z,79.60
2018-08-23T11:48:30.326Z,79.80
2018-08-23T11:50:58.620Z,80.20
2018-08-23T11:53:27.037Z,80.60
2018-08-23T11:55:55.249Z,80.20
2018-08-23T11:58:23.572Z,79.70
2018-08-23T12:00:51.814Z,81.40
2018-08-23T12:03:21.035Z,82.80
2018-08-23T12:05:49.600Z,83.50
2018-08-23T12:08:18.078Z,81.70
2018-08-23T12:10:46.352Z,80.60
2018-08-23T12:13:14.729Z,81.30
2018-08-23T12:15:45.557Z,80.30
2018-08-23T12:18:17.661Z,79.00
2018-08-23T12:21:13.924Z,80.00
2018-08-23T12:23:55.644Z,78.20
2018-08-23T12:26:34.451Z,80.20
2018-08-23T12:29:14.365Z,79.50
2018-08-23T12:34:56.189Z,80.80
2018-08-23T12:40:18.236Z,82.20
2018-08-23T12:46:19.169Z,81.00
2018-08-23T12:51:41.062Z,79.40
2018-08-23T12:54:11.084Z,81.50
2018-08-23T12:56:51.044Z,81.50
2018-08-23T12:59:25.027Z,82.40
2018-08-23T13:04:50.131Z,82.90
2018-08-23T13:12:49.931Z,81.40
2018-08-23T13:15:29.356Z,83.30
2018-08-23T13:18:13.103Z,83.80
2018-08-23T13:20:43.671Z,84.90
2018-08-23T13:23:14.794Z,83.10
2018-08-23T13:25:51.696Z,83.70
2018-08-23T13:28:20.435Z,83.50
2018-08-23T13:30:52.831Z,84.10
2018-08-23T13:33:25.788Z,84.90
2018-08-23T13:35:57.039Z,84.10
2018-08-23T13:38:29.347Z,85.20
2018-08-23T13:40:58.429Z,84.30
2018-08-23T13:43:28.597Z,84.10
2018-08-23T13:46:01.226Z,84.90
2018-08-23T13:48:32.866Z,84.30
2018-08-23T13:51:05.350Z,85.50
2018-08-23T13:53:34.164Z,87.10
2018-08-23T13:56:08.915Z,87.30
2018-08-23T13:58:39.643Z,87.60
2018-08-23T14:01:15.239Z,87.00
2018-08-23T14:03:51.029Z,88.40
2018-08-23T14:06:21.213Z,86.00
2018-08-23T14:08:58.100Z,85.60
2018-08-23T14:11:27.404Z,85.40
2018-08-23T14:13:57.640Z,85.30
2018-08-23T14:16:27.304Z,83.90
2018-08-23T14:22:03.208Z,84.70
2018-08-23T14:24:36.185Z,84.30
2018-08-23T14:27:12.600Z,83.70
2018-08-23T14:29:47.630Z,85.40
2018-08-23T14:32:20.981Z,85.80
2018-08-23T14:34:51.793Z,84.90
2018-08-23T14:42:28.614Z,85.40
2018-08-23T14:50:56.869Z,82.60
2018-08-23T15:01:24.838Z,83.00
2018-08-23T15:07:20.627Z,84.20
2018-08-23T15:10:23.634Z,84.90
2018-08-23T15:16:12.204Z,82.80
2018-08-23T15:20:39.988Z,83.00
2018-08-23T16:09:19.731Z,84.50
2018-08-23T16:11:55.075Z,79.70
2018-08-23T16:14:35.889Z,80.60
2018-08-23T16:17:15.159Z,80.50
2018-08-23T17:28:26.202Z,82.40
2018-08-23T18:16:54.170Z,92.10
2018-08-23T18:19:22.511Z,94.20
2018-08-23T18:21:51.188Z,94.40
2018-08-23T18:24:19.659Z,94.40
2018-08-23T18:26:48.013Z,94.30
2018-08-23T18:29:16.327Z,94.10
2018-08-23T18:31:44.571Z,94.30
2018-08-23T18:34:12.914Z,94.50
2018-08-23T18:36:41.176Z,94.60
2018-08-23T18:39:10.920Z,94.90
2018-08-23T18:41:39.346Z,95.00
2018-08-23T18:44:07.820Z,95.20
2018-08-23T18:46:36.389Z,95.20
2018-08-23T18:49:04.800Z,95.10
2018-08-23T18:51:33.054Z,95.20
2018-08-23T18:54:01.541Z,95.10
2018-08-23T18:56:30.325Z,95.40
2018-08-23T18:58:58.803Z,95.20
2018-08-23T19:01:27.070Z,95.20
2018-08-23T19:03:55.430Z,95.30
2018-08-23T19:06:28.977Z,95.50
2018-08-23T19:09:02.317Z,96.00
2018-08-23T19:11:30.652Z,95.60
2018-08-23T19:13:59.024Z,95.50
2018-08-23T19:16:32.658Z,95.50
2018-08-23T19:19:01.012Z,95.50
2018-08-23T19:21:29.267Z,95.70
2018-08-23T19:23:57.547Z,95.60
2018-08-23T19:26:25.926Z,95.90
2018-08-23T19:28:54.241Z,96.10
2018-08-23T19:31:22.594Z,95.90
2018-08-23T19:33:50.894Z,95.90
2018-08-23T19:36:19.462Z,96.30
2018-08-23T19:38:47.746Z,96.40
2018-08-23T19:41:16.076Z,96.10
2018-08-23T19:43:44.323Z,96.20
2018-08-23T19:46:17.890Z,96.40
2018-08-23T19:48:47.766Z,96.10
2018-08-23T19:51:16.035Z,96.10
2018-08-23T19:53:44.288Z,96.00
2018-08-23T19:56:12.531Z,96.10
2018-08-23T19:58:40.916Z,96.40
2018-08-23T20:01:09.211Z,96.60
2018-08-23T20:03:38.557Z,96.70
2018-08-23T20:06:07.193Z,96.70
2018-08-23T20:08:47.502Z,96.80
2018-08-23T20:11:15.778Z,96.90
2018-08-23T20:13:44.083Z,97.30
2018-08-23T20:16:12.409Z,97.50
2018-08-23T20:18:40.736Z,97.60
2018-08-23T20:21:09.014Z,97.80
2018-08-23T20:23:37.297Z,98.10
2018-08-23T20:26:05.880Z,98.10
2018-08-23T20:28:34.234Z,98.00
2018-08-23T20:31:02.845Z,98.00
2018-08-23T20:33:31.121Z,98.00
2018-08-23T20:35:59.367Z,98.20
2018-08-23T20:38:27.650Z,98.30
2018-08-23T20:40:55.926Z,98.50
2018-08-23T20:43:24.183Z,98.30
2018-08-23T20:45:52.459Z,98.50
2018-08-23T20:48:20.881Z,98.20
2018-08-23T20:50:49.175Z,98.30
2018-08-23T20:53:17.512Z,98.60
2018-08-23T20:55:45.811Z,98.70
2018-08-23T20:58:14.137Z,98.80
2018-08-23T21:00:42.382Z,98.80
2018-08-23T21:03:10.630Z,98.70
2018-08-23T21:05:38.898Z,98.80
2018-08-23T21:08:07.202Z,98.80
2018-08-23T21:10:35.495Z,98.80
2018-08-23T21:13:03.826Z,98.70
2018-08-23T21:15:38.784Z,99.20
2018-08-23T21:18:10.000Z,99.60
2018-08-23T21:20:38.724Z,99.80
2018-08-23T21:23:08.179Z,99.70
2018-08-23T21:25:36.598Z,99.90
2018-08-23T21:28:06.337Z,99.90
2018-08-23T21:30:34.560Z,99.90
2018-08-23T21:33:02.790Z,99.90
2018-08-23T21:35:31.087Z,99.90
2018-08-23T21:37:59.415Z,99.90
2018-08-23T21:40:27.965Z,99.90
2018-08-23T21:42:56.281Z,99.90
2018-08-23T21:45:24.943Z,99.90
2018-08-23T21:47:53.202Z,99.90
2018-08-23T21:50:21.521Z,99.90
2018-08-23T21:52:49.860Z,99.90
2018-08-23T21:55:18.797Z,99.90
2018-08-23T21:57:47.048Z,99.90
2018-08-23T22:00:15.692Z,99.90
2018-08-23T22:02:43.971Z,99.90
2018-08-23T22:05:12.353Z,99.90
2018-08-23T22:07:40.601Z,99.90
2018-08-23T22:10:08.910Z,99.80
2018-08-23T22:12:39.114Z,99.90
2018-08-23T22:15:07.387Z,99.70
2018-08-23T22:17:35.880Z,99.90
2018-08-23T22:20:04.358Z,99.70
2018-08-23T22:22:32.589Z,99.70
2018-08-23T22:25:00.858Z,99.70
2018-08-23T22:27:29.110Z,99.60
2018-08-23T22:29:57.414Z,99.80
2018-08-23T22:32:25.720Z,99.70
2018-08-23T22:34:53.999Z,99.70
2018-08-23T22:37:22.237Z,99.90
2018-08-23T22:39:50.496Z,99.90
2018-08-23T22:42:18.737Z,99.70
2018-08-23T22:44:47.019Z,99.60
2018-08-23T22:47:15.319Z,99.90
2018-08-23T22:49:43.632Z,99.90
2018-08-23T22:52:11.822Z,99.90
2018-08-23T22:54:40.133Z,99.90
2018-08-23T22:57:08.385Z,99.90
2018-08-23T22:59:36.623Z,99.90
2018-08-23T23:02:04.959Z,99.90
2018-08-23T23:04:33.218Z,99.90
2018-08-23T23:07:05.714Z,99.90
2018-08-23T23:09:33.983Z,99.90
2018-08-23T23:12:02.288Z,99.90
2018-08-23T23:14:30.509Z,99.90
2018-08-23T23:16:58.808Z,99.90
2018-08-23T23:19:27.295Z,99.90
2018-08-23T23:21:55.575Z,99.90
2018-08-23T23:24:29.164Z,99.90
2018-08-23T23:26:57.427Z,99.90
2018-08-23T23:29:25.846Z,99.90
2018-08-23T23:31:54.166Z,99.90
2018-08-23T23:34:22.472Z,99.90
2018-08-23T23:36:50.844Z,99.90
2018-08-23T23:39:19.208Z,99.90
2018-08-23T23:41:47.503Z,99.90
2018-08-23T23:44:15.887Z,99.90
2018-08-23T23:46:44.175Z,99.90
2018-08-23T23:49:12.604Z,99.90
2018-08-23T23:51:41.347Z,99.90
2018-08-23T23:54:09.767Z,99.90
2018-08-23T23:56:38.038Z,99.90
2018-08-23T23:59:06.661Z,99.90
